createdAt,value
2019-04-27T08:16:10.371Z,6.30
2019-04-27T08:17:10.364Z,5.80
2019-04-27T08:18:10.361Z,5.10
2019-04-27T08:19:10.369Z,6.20
2019-04-27T08:20:10.382Z,4.80
2019-04-27T08:21:10.390Z,7.20
2019-04-27T08:22:10.403Z,6.00
2019-04-27T08:23:10.402Z,6.60
2019-04-27T08:24:11.238Z,5.90
2019-04-27T08:25:10.412Z,7.00
2019-04-27T08:26:10.425Z,6.10
2019-04-27T08:28:10.572Z,7.70
2019-04-27T08:29:10.447Z,9.00
2019-04-27T08:30:10.451Z,8.60
2019-04-27T08:31:10.469Z,8.50
2019-04-27T08:32:10.474Z,5.60
2019-04-27T08:33:10.487Z,8.70
2019-04-27T08:34:10.476Z,6.90
2019-04-27T08:35:10.488Z,12.50
2019-04-27T08:36:10.493Z,6.60
2019-04-27T08:37:10.513Z,11.00
2019-04-27T08:38:10.621Z,10.70
2019-04-27T08:39:10.519Z,11.60
2019-04-27T08:40:10.538Z,9.50
2019-04-27T08:41:10.637Z,9.60
2019-04-27T08:42:10.538Z,8.20
2019-04-27T08:43:10.545Z,8.50
2019-04-27T08:44:10.553Z,6.90
2019-04-27T08:45:10.568Z,7.40
2019-04-27T08:46:10.568Z,12.00
2019-04-27T08:47:10.572Z,9.00
2019-04-27T08:48:10.578Z,8.10
2019-04-27T08:49:10.581Z,9.20
2019-04-27T08:50:10.595Z,9.40
2019-04-27T08:51:10.605Z,9.30
2019-04-27T08:52:10.608Z,8.40
2019-04-27T08:53:10.618Z,9.90
2019-04-27T08:54:10.625Z,10.20
2019-04-27T08:56:10.635Z,9.40
2019-04-27T08:57:10.652Z,9.50
2019-04-27T08:58:10.655Z,9.80
2019-04-27T08:59:10.659Z,8.90
2019-04-27T09:00:10.676Z,6.20
2019-04-27T09:01:10.672Z,7.60
2019-04-27T09:02:10.689Z,9.00
2019-04-27T09:03:10.695Z,7.40
2019-04-27T09:04:11.291Z,7.70
2019-04-27T09:05:10.706Z,9.50
2019-04-27T09:06:10.704Z,8.20
2019-04-27T09:07:10.720Z,7.10
2019-04-27T09:08:10.725Z,9.00
2019-04-27T09:09:10.738Z,7.60
2019-04-27T09:10:10.738Z,9.70
2019-04-27T09:11:10.756Z,9.40
2019-04-27T09:12:10.752Z,7.50
2019-04-27T09:13:10.770Z,8.10
2019-04-27T09:14:10.771Z,8.20
2019-04-27T09:15:10.776Z,9.20
2019-04-27T09:16:11.161Z,10.40
2019-04-27T09:17:10.789Z,8.40
2019-04-27T09:18:10.801Z,11.40
2019-04-27T09:19:10.810Z,9.20
2019-04-27T09:20:10.812Z,11.90
2019-04-27T09:21:10.823Z,7.90
2019-04-27T09:22:16.138Z,9.70
2019-04-27T09:23:10.839Z,8.30
2019-04-27T09:24:10.845Z,9.00
2019-04-27T09:25:10.851Z,9.70
2019-04-27T09:26:11.167Z,9.90
2019-04-27T09:27:10.863Z,10.40
2019-04-27T09:28:10.873Z,11.00
2019-04-27T09:29:10.886Z,10.90
2019-04-27T09:30:10.887Z,12.40
2019-04-27T09:31:10.891Z,11.00
2019-04-27T09:32:10.912Z,11.00
2019-04-27T09:33:10.911Z,10.20
2019-04-27T09:34:12.657Z,11.00
2019-04-27T09:35:10.934Z,8.80
2019-04-27T09:36:10.950Z,10.00
2019-04-27T09:37:10.952Z,9.90
2019-04-27T09:38:10.954Z,9.90
2019-04-27T09:39:10.965Z,11.20
2019-04-27T09:40:10.980Z,11.20
2019-04-27T09:41:10.975Z,9.90
2019-04-27T09:42:11.006Z,9.10
2019-04-27T09:43:10.992Z,8.00
2019-04-27T09:44:11.010Z,10.40
2019-04-27T09:45:11.022Z,10.90
2019-04-27T09:46:11.022Z,9.20
2019-04-27T09:47:11.024Z,9.50
2019-04-27T09:48:11.044Z,11.90
2019-04-27T09:49:12.216Z,8.50
2019-04-27T09:50:11.053Z,7.60
2019-04-27T09:51:11.058Z,8.20
2019-04-27T09:52:23.359Z,6.50
2019-04-27T09:53:11.210Z,9.30
2019-04-27T09:54:11.083Z,8.30
2019-04-27T09:55:11.096Z,8.00
2019-04-27T09:56:11.138Z,7.40
2019-04-27T09:57:11.128Z,9.70
2019-04-27T09:58:11.123Z,9.30
2019-04-27T09:59:11.134Z,8.00
2019-04-27T10:00:11.142Z,8.70
2019-04-27T10:01:11.151Z,9.60
2019-04-27T10:02:11.160Z,8.80
2019-04-27T10:03:11.193Z,7.20
2019-04-27T10:04:11.172Z,9.20
2019-04-27T10:05:11.173Z,8.10
2019-04-27T10:06:11.185Z,13.40
2019-04-27T10:07:11.216Z,15.30
2019-04-27T10:08:11.204Z,12.00
2019-04-27T10:09:11.207Z,8.50
2019-04-27T10:10:11.213Z,7.40
2019-04-27T10:11:11.254Z,8.90
2019-04-27T10:12:11.238Z,9.10
2019-04-27T10:13:11.250Z,8.50
2019-04-27T10:14:11.243Z,7.30
2019-04-27T10:15:11.270Z,9.00
2019-04-27T10:16:11.281Z,8.90
2019-04-27T10:17:11.288Z,8.60
2019-04-27T10:18:11.295Z,8.00
2019-04-27T10:19:11.294Z,12.00
2019-04-27T10:20:11.339Z,8.50
2019-04-27T10:21:11.314Z,5.90
2019-04-27T10:22:11.363Z,9.10
2019-04-27T10:23:11.329Z,8.10
2019-04-27T10:24:11.335Z,8.20
2019-04-27T10:25:11.340Z,8.40
2019-04-27T10:26:11.348Z,6.90
2019-04-27T10:27:11.359Z,9.70
2019-04-27T10:28:11.368Z,9.20
2019-04-27T10:29:11.373Z,7.80
2019-04-27T10:30:11.387Z,9.60
2019-04-27T10:31:11.386Z,6.90
2019-04-27T10:32:11.409Z,7.90
2019-04-27T10:33:11.408Z,7.00
2019-04-27T10:34:11.418Z,8.00
2019-04-27T10:35:11.423Z,8.50
2019-04-27T10:36:11.437Z,8.80
2019-04-27T10:37:11.429Z,8.50
2019-04-27T10:38:11.453Z,8.10
2019-04-27T10:39:13.239Z,9.90
2019-04-27T10:40:11.459Z,8.10
2019-04-27T10:41:11.475Z,8.50
2019-04-27T10:42:11.480Z,7.50
2019-04-27T10:43:11.485Z,8.30
2019-04-27T10:44:11.496Z,10.60
2019-04-27T10:45:11.502Z,7.10
2019-04-27T10:46:11.583Z,7.30
2019-04-27T10:47:11.509Z,10.10
2019-04-27T10:48:11.522Z,8.80
2019-04-27T10:49:11.533Z,7.30
2019-04-27T10:50:11.546Z,7.50
2019-04-27T10:51:11.554Z,9.90
2019-04-27T10:52:11.574Z,10.50
2019-04-27T10:53:11.571Z,7.10
2019-04-27T10:54:11.576Z,8.10
2019-04-27T10:55:11.588Z,8.10
2019-04-27T10:56:11.596Z,10.50
2019-04-27T10:57:11.605Z,7.80
2019-04-27T10:58:11.616Z,10.50
2019-04-27T10:59:11.626Z,7.10
2019-04-27T11:00:11.631Z,7.10
2019-04-27T11:01:11.635Z,7.00
2019-04-27T11:02:11.659Z,7.40
2019-04-27T11:03:11.652Z,7.30
2019-04-27T11:04:11.664Z,6.00
2019-04-27T11:05:11.683Z,6.10
2019-04-27T11:06:11.687Z,6.20
2019-04-27T11:07:11.685Z,7.10
2019-04-27T11:08:11.694Z,6.10
2019-04-27T11:09:11.708Z,5.90
2019-04-27T11:10:11.719Z,5.50
2019-04-27T11:11:11.723Z,8.20
2019-04-27T11:12:11.726Z,8.00
2019-04-27T11:13:11.739Z,5.20
2019-04-27T11:14:11.753Z,8.70
2019-04-27T11:15:11.762Z,6.50
2019-04-27T11:16:11.762Z,6.10
2019-04-27T11:17:11.774Z,5.60
2019-04-27T11:18:11.781Z,6.50
2019-04-27T11:19:11.782Z,5.30
2019-04-27T11:20:11.801Z,6.70
2019-04-27T11:21:11.793Z,6.80
2019-04-27T11:22:11.812Z,5.80
2019-04-27T11:23:12.370Z,6.00
2019-04-27T11:24:11.824Z,2.50
2019-04-27T11:25:11.834Z,2.40
2019-04-27T11:26:11.833Z,2.60
2019-04-27T11:27:11.855Z,6.30
2019-04-27T11:28:11.851Z,2.80
2019-04-27T11:29:11.864Z,3.90
2019-04-27T11:30:11.861Z,3.10
2019-04-27T11:31:11.878Z,5.10
2019-04-27T11:32:11.889Z,3.20
2019-04-27T11:33:11.885Z,3.90
2019-04-27T11:34:11.901Z,3.60
2019-04-27T11:35:11.927Z,4.30
2019-04-27T11:36:14.833Z,5.90
2019-04-27T11:37:11.920Z,6.20
2019-04-27T11:38:11.911Z,6.60
2019-04-27T11:39:11.927Z,6.60
2019-04-27T11:40:11.934Z,4.60
2019-04-27T11:41:11.940Z,8.90
2019-04-27T11:42:11.944Z,9.10
2019-04-27T11:43:11.945Z,7.20
2019-04-27T11:44:11.960Z,8.30
2019-04-27T11:45:11.977Z,10.40
2019-04-27T11:46:11.978Z,6.40
2019-04-27T11:47:11.977Z,7.10
2019-04-27T11:48:11.991Z,8.70
2019-04-27T11:49:12.003Z,7.90
2019-04-27T11:50:12.007Z,10.50
2019-04-27T11:51:12.003Z,10.60
2019-04-27T11:52:12.013Z,9.00
2019-04-27T11:53:22.099Z,10.20
2019-04-27T11:54:12.042Z,11.40
2019-04-27T11:55:12.043Z,10.00
2019-04-27T11:56:12.046Z,8.70
2019-04-27T11:57:12.059Z,10.30
2019-04-27T11:58:12.057Z,10.10
2019-04-27T11:59:12.064Z,10.90
2019-04-27T12:00:12.068Z,8.60
2019-04-27T12:01:12.079Z,9.10
2019-04-27T12:02:12.086Z,11.50
2019-04-27T12:03:12.094Z,9.20
2019-04-27T12:04:12.103Z,9.20
2019-04-27T12:05:12.184Z,13.70
2019-04-27T12:06:12.103Z,11.00
2019-04-27T12:07:12.123Z,11.20
2019-04-27T12:08:12.120Z,9.20
2019-04-27T12:09:12.131Z,9.60
2019-04-27T12:10:12.134Z,6.20
2019-04-27T12:11:12.142Z,7.50
2019-04-27T12:12:16.993Z,4.90
2019-04-27T12:13:12.165Z,6.40
2019-04-27T12:14:12.160Z,8.70
2019-04-27T12:15:12.186Z,5.70
2019-04-27T12:16:12.177Z,6.50
2019-04-27T12:17:12.192Z,4.40
2019-04-27T12:18:12.195Z,3.90
2019-04-27T12:19:12.200Z,4.50
2019-04-27T12:21:12.214Z,9.40
2019-04-27T12:22:12.212Z,6.20
2019-04-27T12:23:12.222Z,6.40
2019-04-27T12:24:12.219Z,8.00
2019-04-27T12:25:12.240Z,7.70
2019-04-27T12:26:12.245Z,8.10
2019-04-27T12:27:12.258Z,6.60
2019-04-27T12:28:12.278Z,9.60
2019-04-27T12:29:12.264Z,5.80
2019-04-27T12:30:12.273Z,6.70
2019-04-27T12:31:12.281Z,7.80
2019-04-27T12:32:12.289Z,11.30
2019-04-27T12:33:12.313Z,6.90
2019-04-27T12:34:12.301Z,6.40
2019-04-27T12:35:12.316Z,5.10
2019-04-27T12:36:12.341Z,8.90
2019-04-27T12:37:12.328Z,8.00
2019-04-27T12:39:12.341Z,7.60
2019-04-27T12:40:12.350Z,8.60
2019-04-27T12:41:12.362Z,11.60
2019-04-27T12:42:12.372Z,7.20
2019-04-27T12:43:12.374Z,6.60
2019-04-27T12:44:12.395Z,7.20
2019-04-27T12:45:12.398Z,7.80
2019-04-27T12:46:12.396Z,8.30
2019-04-27T12:47:12.408Z,7.10
2019-04-27T12:48:12.417Z,7.90
2019-04-27T12:49:12.408Z,8.70
2019-04-27T12:50:12.427Z,9.30
2019-04-27T12:51:12.474Z,10.80
2019-04-27T12:52:12.443Z,10.50
2019-04-27T12:53:12.485Z,10.70
2019-04-27T12:54:12.475Z,10.20
2019-04-27T12:55:12.462Z,8.40
2019-04-27T12:56:12.470Z,9.60
2019-04-27T12:57:12.496Z,7.50
2019-04-27T12:58:12.488Z,8.90
2019-04-27T12:59:12.510Z,9.70
2019-04-27T13:00:12.501Z,7.40
2019-04-27T13:01:12.629Z,8.60
2019-04-27T13:02:12.526Z,7.80
2019-04-27T13:03:12.547Z,6.40
2019-04-27T13:04:12.532Z,8.40
2019-04-27T13:05:12.554Z,10.20
2019-04-27T13:06:12.558Z,8.10
2019-04-27T13:07:12.563Z,9.80
2019-04-27T13:08:12.572Z,9.20
2019-04-27T13:09:12.581Z,7.60
2019-04-27T13:10:12.593Z,7.40
2019-04-27T13:11:12.608Z,7.80
2019-04-27T13:12:12.611Z,6.60
2019-04-27T13:13:12.625Z,7.30
2019-04-27T13:14:12.621Z,8.00
2019-04-27T13:15:12.639Z,9.60
2019-04-27T13:16:12.643Z,6.40
2019-04-27T13:17:12.655Z,9.90
2019-04-27T13:18:12.649Z,10.40
2019-04-27T13:19:12.671Z,6.90
2019-04-27T13:20:12.682Z,10.00
2019-04-27T13:21:12.675Z,8.60
2019-04-27T13:22:12.721Z,7.90
2019-04-27T13:24:12.707Z,11.90
2019-04-27T13:25:12.714Z,8.40
2019-04-27T13:26:12.722Z,10.00
2019-04-27T13:27:12.734Z,11.50
2019-04-27T13:28:12.735Z,11.00
2019-04-27T13:29:12.745Z,7.00
2019-04-27T13:30:12.772Z,10.30
2019-04-27T13:31:12.760Z,11.70
2019-04-27T13:32:12.766Z,7.30
2019-04-27T13:33:12.785Z,10.90
2019-04-27T13:34:12.788Z,10.30
2019-04-27T13:35:12.781Z,11.60
2019-04-27T13:36:12.795Z,8.60
2019-04-27T13:37:12.811Z,7.30
2019-04-27T13:38:12.823Z,8.40
2019-04-27T13:39:12.837Z,7.20
2019-04-27T13:40:12.825Z,9.70
2019-04-27T13:41:25.603Z,10.00
2019-04-27T13:42:12.840Z,7.90
2019-04-27T13:43:12.848Z,10.30
2019-04-27T13:44:12.871Z,9.20
2019-04-27T13:45:12.868Z,5.60
2019-04-27T13:46:12.884Z,8.20
2019-04-27T13:47:12.885Z,8.60
2019-04-27T13:48:12.898Z,6.80
2019-04-27T13:49:12.905Z,5.60
2019-04-27T13:50:12.914Z,10.00
2019-04-27T13:51:12.914Z,8.50
2019-04-27T13:52:12.941Z,8.10
2019-04-27T13:53:12.949Z,6.70
2019-04-27T13:54:18.813Z,7.10
2019-04-27T13:55:12.956Z,6.60
2019-04-27T13:56:12.966Z,5.30
2019-04-27T13:58:12.987Z,7.00
2019-04-27T13:59:14.637Z,7.00
2019-04-27T14:00:12.995Z,10.50
2019-04-27T14:01:13.021Z,6.80
2019-04-27T14:02:13.546Z,8.40
2019-04-27T14:03:14.370Z,8.40
2019-04-27T14:04:13.991Z,7.20
2019-04-27T14:05:13.049Z,6.70
2019-04-27T14:06:13.054Z,7.50
2019-04-27T14:08:13.074Z,10.40
2019-04-27T14:09:13.078Z,8.30
2019-04-27T14:10:13.091Z,8.00
2019-04-27T14:11:13.097Z,8.30
2019-04-27T14:12:13.109Z,8.30
2019-04-27T14:13:13.121Z,8.90
2019-04-27T14:14:13.136Z,6.70
2019-04-27T14:15:13.135Z,6.50
2019-04-27T14:16:13.148Z,12.20
2019-04-27T14:17:13.165Z,8.60
2019-04-27T14:18:13.165Z,6.20
2019-04-27T14:19:13.181Z,7.90
2019-04-27T14:20:13.187Z,10.00
2019-04-27T14:21:13.203Z,6.60
2019-04-27T14:22:13.210Z,7.60
2019-04-27T14:23:13.211Z,9.70
2019-04-27T14:24:13.230Z,9.10
2019-04-27T14:25:13.239Z,7.00
2019-04-27T14:26:13.238Z,8.80
2019-04-27T14:27:13.257Z,7.40
2019-04-27T14:28:13.255Z,13.20
2019-04-27T14:29:13.272Z,9.00
2019-04-27T14:30:13.276Z,11.00
2019-04-27T14:31:13.296Z,7.40
2019-04-27T14:32:13.304Z,8.00
2019-04-27T14:33:13.307Z,7.70
2019-04-27T14:34:13.317Z,9.10
2019-04-27T14:35:13.325Z,8.70
2019-04-27T14:36:13.432Z,10.30
2019-04-27T14:37:13.337Z,11.90
2019-04-27T14:38:13.349Z,10.20
2019-04-27T14:39:13.361Z,9.70
2019-04-27T14:40:13.370Z,10.20
2019-04-27T14:41:13.375Z,7.60
2019-04-27T14:42:13.397Z,11.30
2019-04-27T14:43:13.391Z,11.10
2019-04-27T14:44:13.414Z,7.70
2019-04-27T14:45:13.432Z,8.30
2019-04-27T14:46:13.427Z,10.10
2019-04-27T14:47:13.438Z,9.40
2019-04-27T14:48:13.445Z,7.00
2019-04-27T14:49:13.464Z,7.90
2019-04-27T14:50:13.478Z,9.00
2019-04-27T14:51:13.483Z,7.00
2019-04-27T14:52:13.491Z,7.20
2019-04-27T14:53:13.500Z,9.60
2019-04-27T14:54:13.505Z,7.00
2019-04-27T14:55:13.521Z,6.20
2019-04-27T14:56:13.527Z,5.90
2019-04-27T14:57:13.531Z,4.80
2019-04-27T14:58:13.542Z,9.30
2019-04-27T14:59:13.559Z,7.80
2019-04-27T15:00:13.566Z,9.20
2019-04-27T15:01:13.572Z,9.40
2019-04-27T15:02:13.580Z,11.70
2019-04-27T15:03:13.594Z,5.20
2019-04-27T15:04:13.599Z,8.60
2019-04-27T15:05:13.616Z,6.10
2019-04-27T15:06:13.858Z,6.00
2019-04-27T15:07:13.860Z,4.90
2019-04-27T15:08:14.023Z,6.00
2019-04-27T15:09:18.034Z,7.90
2019-04-27T15:10:14.031Z,7.60
2019-04-27T15:11:17.458Z,8.90
2019-04-27T15:12:15.359Z,9.80
2019-04-27T15:13:13.705Z,9.70
2019-04-27T15:14:16.233Z,8.50
2019-04-27T15:15:13.712Z,8.20
2019-04-27T15:16:13.736Z,7.90
2019-04-27T15:17:17.724Z,8.70
2019-04-27T15:18:13.756Z,8.40
2019-04-27T15:19:17.762Z,8.00
2019-04-27T15:20:13.787Z,8.90
2019-04-27T15:21:13.782Z,9.30
2019-04-27T15:22:19.474Z,8.50
2019-04-27T15:23:13.803Z,9.00
2019-04-27T15:24:13.827Z,7.00
2019-04-27T15:25:15.738Z,8.70
2019-04-27T15:26:15.399Z,9.60
2019-04-27T15:27:13.847Z,7.60
2019-04-27T15:28:15.272Z,8.20
2019-04-27T15:29:13.869Z,7.60
2019-04-27T15:30:14.391Z,7.20
2019-04-27T15:31:22.795Z,8.70
2019-04-27T15:32:13.893Z,7.80
2019-04-27T15:33:16.061Z,7.30
2019-04-27T15:34:13.916Z,7.10
2019-04-27T15:35:13.921Z,8.90
2019-04-27T15:36:14.707Z,9.30
2019-04-27T15:37:13.940Z,8.60
2019-04-27T15:38:14.168Z,10.40
2019-04-27T15:39:13.964Z,8.80
2019-04-27T15:40:13.968Z,9.90
2019-04-27T15:41:13.969Z,7.20
2019-04-27T15:42:13.980Z,9.30
2019-04-27T15:43:14.009Z,6.30
2019-04-27T15:44:13.999Z,7.80
2019-04-27T15:45:15.965Z,8.30
2019-04-27T15:47:14.032Z,7.70
2019-04-27T15:48:14.040Z,12.10
2019-04-27T15:49:14.058Z,11.60
2019-04-27T15:50:14.064Z,7.00
2019-04-27T15:51:17.533Z,2.90
2019-04-27T15:52:14.073Z,2.70
2019-04-27T15:53:14.080Z,4.10
2019-04-27T15:54:14.099Z,3.60
2019-04-27T15:55:31.855Z,6.30
2019-04-27T15:56:14.106Z,3.70
2019-04-27T15:57:14.118Z,3.90
2019-04-27T15:58:14.122Z,3.70
2019-04-27T15:59:14.140Z,4.00
2019-04-27T16:00:17.648Z,3.60
2019-04-27T16:01:14.142Z,5.70
2019-04-27T16:02:15.592Z,7.30
2019-04-27T16:03:14.152Z,5.30
2019-04-27T16:04:14.156Z,4.00
2019-04-27T16:05:16.792Z,6.10
2019-04-27T16:06:14.168Z,7.50
2019-04-27T16:07:18.166Z,3.20
2019-04-27T16:08:15.670Z,6.50
2019-04-27T16:09:15.955Z,9.60
2019-04-27T16:10:14.200Z,8.90
2019-04-27T16:11:16.516Z,7.50
2019-04-27T16:12:14.209Z,7.40
2019-04-27T16:13:15.272Z,11.00
2019-04-27T16:14:14.229Z,8.80
2019-04-27T16:15:17.594Z,7.30
2019-04-27T16:16:14.230Z,12.00
2019-04-27T16:17:14.241Z,7.00
2019-04-27T16:18:14.243Z,6.60
2019-04-27T16:19:14.251Z,7.70
2019-04-27T16:20:14.261Z,6.70
2019-04-27T16:21:14.265Z,6.60
2019-04-27T16:22:14.258Z,8.00
2019-04-27T16:23:14.265Z,10.30
2019-04-27T16:24:17.140Z,7.90
2019-04-27T16:25:14.281Z,4.70
2019-04-27T16:26:15.288Z,7.50
2019-04-27T16:27:14.293Z,4.80
2019-04-27T16:28:14.315Z,7.30
2019-04-27T16:29:14.315Z,8.30
2019-04-27T16:30:17.917Z,8.30
2019-04-27T16:31:14.317Z,6.70
2019-04-27T16:32:14.321Z,6.20
2019-04-27T16:33:15.416Z,4.20
2019-04-27T16:34:14.446Z,5.00
2019-04-27T16:35:19.483Z,5.90
2019-04-27T16:36:14.522Z,7.10
2019-04-27T16:37:20.714Z,13.70
2019-04-27T16:38:14.603Z,10.40
2019-04-27T16:39:14.461Z,8.50
2019-04-27T16:40:17.602Z,4.20
2019-04-27T16:41:14.530Z,7.80
2019-04-27T16:42:15.378Z,7.10
2019-04-27T16:43:14.390Z,4.10
2019-04-27T16:44:14.389Z,4.80
2019-04-27T16:45:14.403Z,7.20
2019-04-27T16:46:14.422Z,5.70
2019-04-27T16:47:18.888Z,5.00
2019-04-27T16:48:14.428Z,6.50
2019-04-27T16:49:15.074Z,7.20
2019-04-27T16:50:14.439Z,9.10
2019-04-27T16:52:16.014Z,6.70
2019-04-27T16:53:14.457Z,7.70
2019-04-27T16:54:17.486Z,9.00
2019-04-27T16:55:17.353Z,6.50
2019-04-27T16:56:16.425Z,5.20
2019-04-27T16:57:14.478Z,5.80
2019-04-27T16:58:15.862Z,5.40
2019-04-27T16:59:36.594Z,7.40
2019-04-27T17:00:14.511Z,8.60
2019-04-27T17:01:14.511Z,7.60
2019-04-27T17:02:17.369Z,5.00
2019-04-27T17:03:14.518Z,5.00
2019-04-27T17:04:15.088Z,5.20
2019-04-27T17:05:14.526Z,5.70
2019-04-27T17:06:14.535Z,11.30
2019-04-27T17:07:14.548Z,6.60
2019-04-27T17:08:22.458Z,5.00
2019-04-27T17:09:14.549Z,6.90
2019-04-27T17:10:16.292Z,7.10
2019-04-27T17:11:14.579Z,7.30
2019-04-27T17:12:14.578Z,6.50
2019-04-27T17:13:14.729Z,6.70
2019-04-27T17:14:14.590Z,7.40
2019-04-27T17:15:14.600Z,5.40
2019-04-27T17:16:14.614Z,7.70
2019-04-27T17:17:14.615Z,5.10
2019-04-27T17:18:14.617Z,5.80
2019-04-27T17:19:14.625Z,7.00
2019-04-27T17:20:19.580Z,4.80
2019-04-27T17:21:18.895Z,5.00
2019-04-27T17:22:16.261Z,8.00
2019-04-27T17:23:14.639Z,6.60
2019-04-27T17:24:14.652Z,6.40
2019-04-27T17:25:15.316Z,6.90
2019-04-27T17:26:23.300Z,9.70
2019-04-27T17:27:16.283Z,5.80
2019-04-27T17:28:16.027Z,6.40
2019-04-27T17:29:16.559Z,6.80
2019-04-27T17:30:14.678Z,8.50
2019-04-27T17:31:19.656Z,7.60
2019-04-27T17:32:17.302Z,5.30
2019-04-27T17:33:15.577Z,5.90
2019-04-27T17:34:18.275Z,5.60
2019-04-27T17:35:15.147Z,4.70
2019-04-27T17:36:16.259Z,9.90
2019-04-27T17:37:14.723Z,8.50
2019-04-27T17:38:15.932Z,9.60
2019-04-27T17:39:14.747Z,10.00
2019-04-27T17:40:15.593Z,5.90
2019-04-27T17:41:14.751Z,6.00
2019-04-27T17:43:14.788Z,8.90
2019-04-27T17:44:19.278Z,11.50
2019-04-27T17:45:14.771Z,6.70
2019-04-27T17:46:14.771Z,8.30
2019-04-27T17:47:14.794Z,7.20
2019-04-27T17:49:14.812Z,9.40
2019-04-27T17:50:18.403Z,7.40
2019-04-27T17:51:14.805Z,10.10
2019-04-27T17:52:17.177Z,7.90
2019-04-27T17:53:14.822Z,7.30
2019-04-27T17:54:14.841Z,8.10
2019-04-27T17:55:19.546Z,8.90
2019-04-27T17:56:14.841Z,7.60
2019-04-27T17:57:14.857Z,10.30
2019-04-27T17:58:17.831Z,7.40
2019-04-27T17:59:16.829Z,8.10
2019-04-27T18:00:14.869Z,10.10
2019-04-27T18:01:19.091Z,8.00
2019-04-27T18:02:14.875Z,8.10
2019-04-27T18:03:19.378Z,11.40
2019-04-27T18:04:14.898Z,7.30
2019-04-27T18:05:15.100Z,7.50
2019-04-27T18:06:14.914Z,7.70
2019-04-27T18:07:14.908Z,9.10
2019-04-27T18:08:19.996Z,8.00
2019-04-27T18:09:14.926Z,6.60
2019-04-27T18:10:22.774Z,8.50
2019-04-27T18:11:14.966Z,14.20
2019-04-27T18:12:15.853Z,9.40
2019-04-27T18:13:20.851Z,11.40
2019-04-27T18:14:14.949Z,7.20
2019-04-27T18:15:16.122Z,9.10
2019-04-27T18:16:14.965Z,12.20
2019-04-27T18:17:15.003Z,12.30
2019-04-27T18:18:14.980Z,9.30
2019-04-27T18:19:14.987Z,11.50
2019-04-27T18:20:15.003Z,7.70
2019-04-27T18:21:15.007Z,10.30
2019-04-27T18:22:15.004Z,11.40
2019-04-27T18:23:16.117Z,11.60
2019-04-27T18:24:15.020Z,11.40
2019-04-27T18:25:15.023Z,11.10
2019-04-27T18:26:17.441Z,8.00
2019-04-27T18:27:15.041Z,9.20
2019-04-27T18:28:16.109Z,8.40
2019-04-27T18:29:15.046Z,9.20
2019-04-27T18:30:15.176Z,9.40
2019-04-27T18:31:16.141Z,10.30
2019-04-27T18:32:15.071Z,10.90
2019-04-27T18:33:15.088Z,9.70
2019-04-27T18:34:16.971Z,9.80
2019-04-27T18:35:15.081Z,10.40
2019-04-27T18:36:15.089Z,8.20
2019-04-27T18:37:20.895Z,9.00
2019-04-27T18:38:15.108Z,8.30
2019-04-27T18:39:15.109Z,10.20
2019-04-27T18:40:15.113Z,8.80
2019-04-27T18:41:15.135Z,11.80
2019-04-27T18:42:15.126Z,9.80
2019-04-27T18:43:15.137Z,12.70
2019-04-27T18:44:15.633Z,10.30
2019-04-27T18:45:15.139Z,8.50
2019-04-27T18:46:22.006Z,7.90
2019-04-27T18:47:15.489Z,9.20
2019-04-27T18:48:15.150Z,10.50
2019-04-27T18:49:15.161Z,9.80
2019-04-27T18:50:15.175Z,9.30
2019-04-27T18:51:15.169Z,9.00
2019-04-27T18:52:15.179Z,7.50
2019-04-27T18:53:16.355Z,9.60
2019-04-27T18:54:15.193Z,7.40
2019-04-27T18:55:16.759Z,7.40
2019-04-27T18:56:15.201Z,10.60
2019-04-27T18:57:16.411Z,10.90
2019-04-27T18:58:15.215Z,11.60
2019-04-27T18:59:15.220Z,11.40
2019-04-27T19:00:15.243Z,9.40
2019-04-27T19:01:15.238Z,10.10
2019-04-27T19:02:15.236Z,8.40
2019-04-27T19:03:15.243Z,9.10
2019-04-27T19:04:15.250Z,7.00
2019-04-27T19:05:15.260Z,9.30
2019-04-27T19:06:15.255Z,9.80
2019-04-27T19:07:15.264Z,10.30
2019-04-27T19:08:15.283Z,7.80
2019-04-27T19:09:15.285Z,6.90
2019-04-27T19:11:15.300Z,6.10
2019-04-27T19:12:15.295Z,7.80
2019-04-27T19:13:15.314Z,9.20
2019-04-27T19:14:15.314Z,8.20
2019-04-27T19:15:15.322Z,7.80
2019-04-27T19:16:15.351Z,9.70
2019-04-27T19:17:15.322Z,9.90
2019-04-27T19:18:15.337Z,8.30
2019-04-27T19:19:15.361Z,10.60
2019-04-27T19:20:15.334Z,6.30
2019-04-27T19:21:15.353Z,6.70
2019-04-27T19:22:15.375Z,11.20
2019-04-27T19:23:15.364Z,8.60
2019-04-27T19:24:15.399Z,12.50
2019-04-27T19:25:15.373Z,10.40
2019-04-27T19:26:15.392Z,7.60
2019-04-27T19:27:18.571Z,9.40
2019-04-27T19:28:15.404Z,8.40
2019-04-27T19:29:15.395Z,8.50
2019-04-27T19:30:15.419Z,11.80
2019-04-27T19:31:15.419Z,8.90
2019-04-27T19:32:15.430Z,12.10
2019-04-27T19:33:15.429Z,10.80
2019-04-27T19:34:15.420Z,9.70
2019-04-27T19:35:15.438Z,10.80
2019-04-27T19:37:15.441Z,14.90
2019-04-27T19:38:15.444Z,12.90
2019-04-27T19:39:15.476Z,13.90
2019-04-27T19:40:15.463Z,8.90
2019-04-27T19:41:15.467Z,11.80
2019-04-27T19:42:15.485Z,9.40
2019-04-27T19:43:15.482Z,10.70
2019-04-27T19:44:15.488Z,11.90
2019-04-27T19:45:15.491Z,13.50
2019-04-27T19:46:15.489Z,12.90
2019-04-27T19:47:15.504Z,10.80
2019-04-27T19:49:15.509Z,9.30
2019-04-27T19:50:15.515Z,10.50
2019-04-27T19:51:15.527Z,12.30
2019-04-27T19:52:15.521Z,13.10
2019-04-27T19:53:15.518Z,11.50
2019-04-27T19:54:15.532Z,10.40
2019-04-27T19:55:15.533Z,8.90
2019-04-27T19:56:15.540Z,16.50
2019-04-27T19:57:15.543Z,9.90
2019-04-27T19:58:15.555Z,12.30
2019-04-27T19:59:15.552Z,11.60
2019-04-27T20:00:15.584Z,15.80
2019-04-27T20:01:15.571Z,14.00
2019-04-27T20:02:15.571Z,11.90
2019-04-27T20:03:15.577Z,12.00
2019-04-27T20:04:15.582Z,12.20
2019-04-27T20:05:17.009Z,10.60
2019-04-27T20:06:15.620Z,12.30
2019-04-27T20:07:15.614Z,10.70
2019-04-27T20:08:15.607Z,11.60
2019-04-27T20:53:41.864Z,13.30
2019-04-27T20:55:40.171Z,15.50
2019-04-27T20:56:44.176Z,10.30
2019-04-27T20:57:41.604Z,12.10
2019-04-27T20:58:38.156Z,17.70
2019-04-27T21:02:37.672Z,14.40
2019-04-27T21:03:41.651Z,13.00
2019-04-27T21:04:42.665Z,22.80
2019-04-27T21:05:40.976Z,15.40
2019-04-27T21:06:37.658Z,15.20
2019-04-27T21:07:37.654Z,16.80
2019-04-27T21:08:36.986Z,14.50
2019-04-27T21:09:36.981Z,18.50
2019-04-27T21:10:36.988Z,13.50
2019-04-27T21:11:36.989Z,13.90
2019-04-27T21:12:37.010Z,15.70
2019-04-27T21:13:36.993Z,16.50
2019-04-27T21:14:37.025Z,15.40
2019-04-27T21:15:37.093Z,12.80
2019-04-27T21:16:37.031Z,14.60
2019-04-27T21:17:37.021Z,16.10
2019-04-27T21:18:37.025Z,13.80
2019-04-27T21:19:37.029Z,14.20
2019-04-27T21:20:37.044Z,17.70
2019-04-27T21:21:37.043Z,14.90
2019-04-27T21:22:37.041Z,13.90
2019-04-27T21:24:37.061Z,15.50
2019-04-27T21:25:37.059Z,16.50
2019-04-27T21:26:37.066Z,16.80
2019-04-27T21:27:37.068Z,15.70
2019-04-27T21:28:37.073Z,18.10
2019-04-27T21:30:37.080Z,20.70
2019-04-27T21:31:37.087Z,20.20
2019-04-27T21:32:37.094Z,15.80
2019-04-27T21:33:37.098Z,19.00
2019-04-27T21:34:37.098Z,18.30
2019-04-27T21:35:37.093Z,15.40
2019-04-27T21:36:37.110Z,16.60
2019-04-27T21:38:37.120Z,17.70
2019-04-27T21:39:37.132Z,15.70
2019-04-27T21:40:37.128Z,16.90
2019-04-27T21:41:37.135Z,17.60
2019-04-27T21:42:37.148Z,18.10
2019-04-27T21:43:37.145Z,17.00
2019-04-27T21:44:37.139Z,16.60
2019-04-27T21:45:37.153Z,16.60
2019-04-27T21:46:37.157Z,18.50
2019-04-27T21:47:37.156Z,18.00
2019-04-27T21:48:37.165Z,20.30
2019-04-27T21:50:37.274Z,19.40
2019-04-27T21:51:37.183Z,23.60
2019-04-27T21:52:37.183Z,20.40
2019-04-27T21:53:37.181Z,17.00
2019-04-27T21:54:37.190Z,19.90
2019-04-27T21:55:37.199Z,16.50
2019-04-27T21:56:37.205Z,18.60
2019-04-27T21:57:37.210Z,18.40
2019-04-27T21:58:37.214Z,17.20
2019-04-27T21:59:37.219Z,19.10
2019-04-27T22:01:37.237Z,31.70
2019-04-27T22:02:37.245Z,29.80
2019-04-27T22:03:37.229Z,22.30
2019-04-27T22:04:37.251Z,23.90
2019-04-27T22:07:37.587Z,18.40
2019-04-27T22:08:37.261Z,23.10
2019-04-27T22:09:37.273Z,20.90
2019-04-27T22:11:37.279Z,24.40
2019-04-27T22:12:37.268Z,21.10
2019-04-27T22:14:37.291Z,24.70
2019-04-27T22:15:37.296Z,18.50
2019-04-27T22:16:37.310Z,23.50
2019-04-27T22:17:37.307Z,19.00
2019-04-27T22:18:37.309Z,21.40
2019-04-27T22:19:37.315Z,22.20
2019-04-27T22:20:37.311Z,22.70
2019-04-27T22:21:37.331Z,23.50
2019-04-27T22:22:37.315Z,27.10
2019-04-27T22:23:37.329Z,24.50
2019-04-27T22:24:37.335Z,19.10
2019-04-27T22:25:37.336Z,19.50
2019-04-27T22:26:37.354Z,19.60
2019-04-27T22:27:37.348Z,18.50
2019-04-27T22:28:47.069Z,22.60
2019-04-27T22:29:37.360Z,24.20
2019-04-27T22:30:37.381Z,21.70
2019-04-27T22:32:37.376Z,24.60
2019-04-27T22:33:37.379Z,22.20
2019-04-27T22:34:37.387Z,22.30
2019-04-27T22:35:37.390Z,25.60
2019-04-27T22:36:37.391Z,22.90
2019-04-27T22:37:37.400Z,24.40
2019-04-27T22:38:37.453Z,25.30